Crane Gaia — 3FXX2 — position and weather

sailwx.info

Track history (hours):
 
Tides and Currents Weather Stations Pressure Air Temp Water Temp Dewpoint Dewpoint Depression Visibility Wind Speed Wind Dir Waves Ship Positions

Crane Gaia

Last reported at 2014-Dec-13 01:28 UTC. Time now 2014-Dec-21 22:19 UTC.
Position N 22°16' E 119°50'.
Warning: this ship's position is 8 days out of date.

Length 115 m; draft 5.2 m.

Type: Tanker. MMSI: 352461000.

Date/timePositionNaut miles runAvg speedWind from/ knotsBaromVisibWave heightAir tempDewpointWater temp
2014-Dec-13 01:28N 22°16' E 119°50'1314.0
2014-Dec-13 00:33N 22°29' E 119°50'1414.0
2014-Dec-12 23:33N 22°43' E 119°52'50813.0
2014-Dec-11 08:31N 30°51' E 122°31'1313.5
2014-Dec-11 07:33N 30°45' E 122°17'1312.6
2014-Dec-11 06:33N 30°34' E 122°12'1010.1
2014-Dec-11 05:33N 30°31' E 122°00'9 9.0
2014-Dec-11 04:33N 30°36' E 121°52'1111.3
2014-Dec-11 03:33N 30°41' E 121°40'9 9.4
2014-Dec-11 02:33N 30°45' E 121°30'2 2.2
2014-Dec-11 01:32N 30°46' E 121°27'0 0.0
2014-Dec-11 00:32N 30°46' E 121°27'0 0.0
2014-Dec-10 23:32N 30°46' E 121°27'0 0.0
2014-Dec-10 22:29N 30°46' E 121°27'0 0.0
2014-Dec-10 21:32N 30°46' E 121°27'0 0.0
2014-Dec-10 20:29N 30°46' E 121°27'0 0.0
2014-Dec-10 19:32N 30°46' E 121°27'0 0.0
2014-Dec-10 18:32N 30°46' E 121°27'0 0.0
2014-Dec-10 17:32N 30°46' E 121°27'0 0.1
2014-Dec-10 16:32N 30°46' E 121°27'0 0.0
2014-Dec-10 15:29N 30°46' E 121°27'0 0.0
2014-Dec-10 14:32N 30°46' E 121°27'0 0.0
2014-Dec-10 13:32N 30°46' E 121°27'0 0.0
2014-Dec-10 12:32N 30°46' E 121°27'0 0.0
2014-Dec-10 11:32N 30°46' E 121°27'0 0.0
2014-Dec-10 10:32N 30°46' E 121°27'0 0.0
2014-Dec-10 09:23N 30°46' E 121°27'0 0.0
2014-Dec-10 08:32N 30°46' E 121°27'0 0.0
2014-Dec-10 07:32N 30°46' E 121°27'0 0.0
2014-Dec-10 06:32N 30°46' E 121°27'0 0.0
2014-Dec-10 05:32N 30°46' E 121°27'0 0.0
2014-Dec-10 04:32N 30°46' E 121°27'0 0.0
2014-Dec-10 03:29N 30°46' E 121°27'0 0.0
2014-Dec-10 02:30N 30°46' E 121°27'6 6.4
2014-Dec-10 01:33N 30°40' E 121°26'5 4.1
2014-Dec-10 00:17N 30°37' E 121°21'0 0.0
2014-Dec-09 23:29N 30°37' E 121°21'0 0.0
2014-Dec-09 22:26N 30°37' E 121°21'0 0.1
2014-Dec-09 21:32N 30°37' E 121°21'0 0.0
2014-Dec-09 20:32N 30°37' E 121°21'0 0.1
2014-Dec-09 19:32N 30°37' E 121°21'0 0.1
2014-Dec-09 18:32N 30°37' E 121°21'0 0.0
2014-Dec-09 17:32N 30°37' E 121°21'0 0.1
2014-Dec-09 16:32N 30°37' E 121°21'0 0.0
2014-Dec-09 15:32N 30°37' E 121°21'0 0.0
2014-Dec-09 14:26N 30°37' E 121°21'0 0.1
2014-Dec-09 13:17N 30°37' E 121°21'0 0.0
2014-Dec-09 12:29N 30°37' E 121°21'0 0.0
2014-Dec-09 11:23N 30°37' E 121°21'0 0.0
2014-Dec-09 10:29N 30°37' E 121°21'0 0.0
2014-Dec-09 09:17N 30°37' E 121°21'0 0.1
2014-Dec-09 08:33N 30°37' E 121°21'7 6.9
2014-Dec-09 07:33N 30°32' E 121°26'1 0.5
2014-Dec-09 06:33N 30°31' E 121°27'0 0.0
2014-Dec-09 05:21N 30°31' E 121°27'0 0.0
2014-Dec-09 04:33N 30°31' E 121°27'0 0.0
2014-Dec-09 03:33N 30°31' E 121°27'0 0.0
2014-Dec-09 02:33N 30°31' E 121°27'0 0.0
2014-Dec-09 01:33N 30°31' E 121°27'0 0.1
2014-Dec-09 00:06N 30°31' E 121°27'0 0.0
2014-Dec-08 23:33N 30°31' E 121°27'0 0.0
2014-Dec-08 22:33N 30°31' E 121°27'0 0.0
2014-Dec-08 19:30N 30°31' E 121°27'0 0.1
2014-Dec-08 18:34N 30°31' E 121°27'0 0.1
2014-Dec-08 17:12N 30°31' E 121°27'0 0.0
2014-Dec-08 16:33N 30°31' E 121°27'0 0.0
2014-Dec-08 15:30N 30°31' E 121°27'0 0.0
2014-Dec-08 14:27N 30°31' E 121°27'0 0.1
2014-Dec-08 13:34N 30°31' E 121°27'0 0.0
2014-Dec-08 08:30N 30°31' E 121°27'0 0.1
2014-Dec-08 06:15N 30°31' E 121°27'0 0.6
2014-Dec-08 05:33N 30°31' E 121°27'1312.7
2014-Dec-08 04:33N 30°26' E 121°40'1411.7
2014-Dec-08 03:20N 30°13' E 121°47'911.3
2014-Dec-08 02:31N 30°04' E 121°48'6 6.1
2014-Dec-08 01:34N 29°59' E 121°45'0 0.1
2014-Dec-08 00:32N 29°59' E 121°45'0 0.0
2014-Dec-07 04:32N 29°59' E 121°45'4 4.1
2014-Dec-07 03:33N 30°02' E 121°48'7 7.3
2014-Dec-07 02:33N 30°09' E 121°48'6 4.7
2014-Dec-07 01:19N 30°15' E 121°45'0 0.1
2014-Dec-07 00:28N 30°15' E 121°45'0 0.1
2014-Dec-06 21:22N 30°15' E 121°45'1 0.1
2014-Dec-06 10:10N 30°15' E 121°46'1911.5
2014-Dec-06 08:33N 30°30' E 121°58'10 9.9
2014-Dec-06 07:34N 30°33' E 122°09'1211.7
2014-Dec-06 06:34N 30°43' E 122°15'1110.9
2014-Dec-06 05:34N 30°52' E 122°23'  
Track history (hours):
 
Tides and Currents Weather Stations Pressure Air Temp Water Temp Dewpoint Dewpoint Depression Visibility Wind Speed Wind Dir Waves Ship Positions

Crane Gaia

Last reported at 2014-Dec-13 01:28 UTC. Time now 2014-Dec-21 22:19 UTC.
Position N 22°16' E 119°50'.
Warning: this ship's position is 8 days out of date.

Length 115 m; draft 5.2 m.

Type: Tanker. MMSI: 352461000.

Date/timePositionNaut miles runAvg speedWind from/ knotsBaromVisibWave heightAir tempDewpointWater temp
2014-Dec-13 01:28N 22°16' E 119°50'1314.0
2014-Dec-13 00:33N 22°29' E 119°50'1414.0
2014-Dec-12 23:33N 22°43' E 119°52'50813.0
2014-Dec-11 08:31N 30°51' E 122°31'1313.5
2014-Dec-11 07:33N 30°45' E 122°17'1312.6
2014-Dec-11 06:33N 30°34' E 122°12'1010.1
2014-Dec-11 05:33N 30°31' E 122°00'9 9.0
2014-Dec-11 04:33N 30°36' E 121°52'1111.3
2014-Dec-11 03:33N 30°41' E 121°40'9 9.4
2014-Dec-11 02:33N 30°45' E 121°30'2 2.2
2014-Dec-11 01:32N 30°46' E 121°27'0 0.0
2014-Dec-11 00:32N 30°46' E 121°27'0 0.0
2014-Dec-10 23:32N 30°46' E 121°27'0 0.0
2014-Dec-10 22:29N 30°46' E 121°27'0 0.0
2014-Dec-10 21:32N 30°46' E 121°27'0 0.0
2014-Dec-10 20:29N 30°46' E 121°27'0 0.0
2014-Dec-10 19:32N 30°46' E 121°27'0 0.0
2014-Dec-10 18:32N 30°46' E 121°27'0 0.0
2014-Dec-10 17:32N 30°46' E 121°27'0 0.1
2014-Dec-10 16:32N 30°46' E 121°27'0 0.0
2014-Dec-10 15:29N 30°46' E 121°27'0 0.0
2014-Dec-10 14:32N 30°46' E 121°27'0 0.0
2014-Dec-10 13:32N 30°46' E 121°27'0 0.0
2014-Dec-10 12:32N 30°46' E 121°27'0 0.0
2014-Dec-10 11:32N 30°46' E 121°27'0 0.0
2014-Dec-10 10:32N 30°46' E 121°27'0 0.0
2014-Dec-10 09:23N 30°46' E 121°27'0 0.0
2014-Dec-10 08:32N 30°46' E 121°27'0 0.0
2014-Dec-10 07:32N 30°46' E 121°27'0 0.0
2014-Dec-10 06:32N 30°46' E 121°27'0 0.0
2014-Dec-10 05:32N 30°46' E 121°27'0 0.0
2014-Dec-10 04:32N 30°46' E 121°27'0 0.0
2014-Dec-10 03:29N 30°46' E 121°27'0 0.0
2014-Dec-10 02:30N 30°46' E 121°27'6 6.4
2014-Dec-10 01:33N 30°40' E 121°26'5 4.1
2014-Dec-10 00:17N 30°37' E 121°21'0 0.0
2014-Dec-09 23:29N 30°37' E 121°21'0 0.0
2014-Dec-09 22:26N 30°37' E 121°21'0 0.1
2014-Dec-09 21:32N 30°37' E 121°21'0 0.0
2014-Dec-09 20:32N 30°37' E 121°21'0 0.1
2014-Dec-09 19:32N 30°37' E 121°21'0 0.1
2014-Dec-09 18:32N 30°37' E 121°21'0 0.0
2014-Dec-09 17:32N 30°37' E 121°21'0 0.1
2014-Dec-09 16:32N 30°37' E 121°21'0 0.0
2014-Dec-09 15:32N 30°37' E 121°21'0 0.0
2014-Dec-09 14:26N 30°37' E 121°21'0 0.1
2014-Dec-09 13:17N 30°37' E 121°21'0 0.0
2014-Dec-09 12:29N 30°37' E 121°21'0 0.0
2014-Dec-09 11:23N 30°37' E 121°21'0 0.0
2014-Dec-09 10:29N 30°37' E 121°21'0 0.0
2014-Dec-09 09:17N 30°37' E 121°21'0 0.1
2014-Dec-09 08:33N 30°37' E 121°21'7 6.9
2014-Dec-09 07:33N 30°32' E 121°26'1 0.5
2014-Dec-09 06:33N 30°31' E 121°27'0 0.0
2014-Dec-09 05:21N 30°31' E 121°27'0 0.0
2014-Dec-09 04:33N 30°31' E 121°27'0 0.0
2014-Dec-09 03:33N 30°31' E 121°27'0 0.0
2014-Dec-09 02:33N 30°31' E 121°27'0 0.0
2014-Dec-09 01:33N 30°31' E 121°27'0 0.1
2014-Dec-09 00:06N 30°31' E 121°27'0 0.0
2014-Dec-08 23:33N 30°31' E 121°27'0 0.0
2014-Dec-08 22:33N 30°31' E 121°27'0 0.0
2014-Dec-08 19:30N 30°31' E 121°27'0 0.1
2014-Dec-08 18:34N 30°31' E 121°27'0 0.1
2014-Dec-08 17:12N 30°31' E 121°27'0 0.0
2014-Dec-08 16:33N 30°31' E 121°27'0 0.0
2014-Dec-08 15:30N 30°31' E 121°27'0 0.0
2014-Dec-08 14:27N 30°31' E 121°27'0 0.1
2014-Dec-08 13:34N 30°31' E 121°27'0 0.0
2014-Dec-08 08:30N 30°31' E 121°27'0 0.1
2014-Dec-08 06:15N 30°31' E 121°27'0 0.6
2014-Dec-08 05:33N 30°31' E 121°27'1312.7
2014-Dec-08 04:33N 30°26' E 121°40'1411.7
2014-Dec-08 03:20N 30°13' E 121°47'911.3
2014-Dec-08 02:31N 30°04' E 121°48'6 6.1
2014-Dec-08 01:34N 29°59' E 121°45'0 0.1
2014-Dec-08 00:32N 29°59' E 121°45'0 0.0
2014-Dec-07 04:32N 29°59' E 121°45'4 4.1
2014-Dec-07 03:33N 30°02' E 121°48'7 7.3
2014-Dec-07 02:33N 30°09' E 121°48'6 4.7
2014-Dec-07 01:19N 30°15' E 121°45'0 0.1
2014-Dec-07 00:28N 30°15' E 121°45'0 0.1
2014-Dec-06 21:22N 30°15' E 121°45'1 0.1
2014-Dec-06 10:10N 30°15' E 121°46'1911.5
2014-Dec-06 08:33N 30°30' E 121°58'10 9.9
2014-Dec-06 07:34N 30°33' E 122°09'1211.7
2014-Dec-06 06:34N 30°43' E 122°15'1110.9
2014-Dec-06 05:34N 30°52' E 122°23'  

Dump ship's entire track history